createdAt,value
2023-02-28T00:00:19.700Z,101469.53
2023-02-28T00:03:21.112Z,101474.69
2023-02-28T00:06:22.806Z,101464.28
2023-02-28T00:09:24.183Z,101468.78
2023-02-28T00:12:25.666Z,101466.72
2023-02-28T00:15:27.388Z,101472.75
2023-02-28T00:18:31.499Z,101469.22
2023-02-28T00:21:33.045Z,101465.84
2023-02-28T00:24:34.501Z,101460.69
2023-02-28T00:27:37.515Z,101458.06
2023-02-28T00:30:39.827Z,101463.13
2023-02-28T00:33:41.248Z,101458.84
2023-02-28T00:36:46.239Z,101463.16
2023-02-28T00:39:47.630Z,101462.28
2023-02-28T00:42:51.055Z,101461.31
2023-02-28T00:45:52.566Z,101462.78
2023-02-28T00:48:53.995Z,101463.63
2023-02-28T00:51:56.493Z,101467.06
2023-02-28T00:54:58.171Z,101467.06
2023-02-28T00:57:59.679Z,101465.41
2023-02-28T01:01:01.326Z,101463.72
2023-02-28T01:04:02.752Z,101464.50
2023-02-28T01:07:04.206Z,101467.16
2023-02-28T01:10:06.110Z,101465.25
2023-02-28T01:13:07.995Z,101456.56
2023-02-28T01:16:14.003Z,101464.56
2023-02-28T01:19:15.421Z,101467.94
2023-02-28T01:22:16.852Z,101460.97
2023-02-28T01:25:18.267Z,101466.97
2023-02-28T01:28:19.792Z,101464.38
2023-02-28T01:31:22.214Z,101462.53
2023-02-28T01:34:24.122Z,101453.84
2023-02-28T01:37:26.418Z,101461.63
2023-02-28T01:40:27.831Z,101463.34
2023-02-28T01:43:53.827Z,101465.75
2023-02-28T01:46:55.220Z,101464.84
2023-02-28T01:49:57.119Z,101453.47
2023-02-28T01:53:02.698Z,101456.06
2023-02-28T01:56:09.354Z,101456.91
2023-02-28T01:59:15.060Z,101454.25
2023-02-28T02:02:18.535Z,101443.88
2023-02-28T02:05:26.472Z,101447.25
2023-02-28T02:08:30.038Z,101442.06
2023-02-28T02:11:31.932Z,101448.94
2023-02-28T02:14:49.147Z,101441.22
2023-02-28T02:17:57.040Z,101439.38
2023-02-28T02:21:37.004Z,101441.09
2023-02-28T02:24:41.607Z,101434.88
2023-02-28T02:28:30.908Z,101434.84
2023-02-28T02:31:57.047Z,101433.16
2023-02-28T02:35:43.836Z,101439.97
2023-02-28T02:39:03.283Z,101429.59
2023-02-28T02:42:15.003Z,101435.63
2023-02-28T02:45:24.705Z,101429.59
2023-02-28T02:48:33.165Z,101432.91
2023-02-28T02:51:35.710Z,101431.88
2023-02-28T02:54:41.082Z,101431.09
2023-02-28T02:57:54.754Z,101427.84
2023-02-28T03:01:01.632Z,101432.09
2023-02-28T03:04:18.972Z,101431.91
2023-02-28T03:07:22.354Z,101426.69
2023-02-28T03:10:44.322Z,101424.09
2023-02-28T03:14:10.940Z,101424.69
2023-02-28T03:17:26.018Z,101420.44
2023-02-28T03:20:53.766Z,101423.88
2023-02-28T03:24:05.528Z,101429.06
2023-02-28T03:27:17.604Z,101428.25
2023-02-28T03:30:28.883Z,101426.47
2023-02-28T03:33:39.007Z,101430.59
2023-02-28T03:36:46.904Z,101432.28
2023-02-28T03:39:54.598Z,101429.78
2023-02-28T03:43:03.293Z,101435.78
2023-02-28T03:46:10.245Z,101435.06
2023-02-28T03:49:25.665Z,101431.63
2023-02-28T03:52:33.413Z,101431.63
2023-02-28T03:55:43.516Z,101433.03
2023-02-28T03:59:03.561Z,101438.91
2023-02-28T04:02:05.110Z,101427.59
2023-02-28T04:05:08.109Z,101438.84
2023-02-28T04:08:09.562Z,101444.94
2023-02-28T04:11:29.771Z,101427.81
2023-02-28T04:14:31.414Z,101442.34
2023-02-28T04:17:32.869Z,101431.09
2023-02-28T04:20:34.260Z,101437.16
2023-02-28T04:23:35.647Z,101437.00
2023-02-28T04:26:37.638Z,101431.97
2023-02-28T04:29:39.141Z,101435.53
2023-02-28T04:32:40.623Z,101440.56
2023-02-28T04:35:42.223Z,101438.03
2023-02-28T04:38:43.601Z,101433.72
2023-02-28T04:41:46.359Z,101434.72
2023-02-28T04:44:48.168Z,101431.28
2023-02-28T04:47:49.559Z,101438.44
2023-02-28T04:50:51.781Z,101434.03
2023-02-28T04:53:53.398Z,101433.91
2023-02-28T04:56:55.686Z,101432.38
2023-02-28T04:59:57.060Z,101435.69
2023-02-28T05:02:58.422Z,101441.19
2023-02-28T05:05:59.785Z,101441.91
2023-02-28T05:09:01.274Z,101437.56
2023-02-28T05:12:02.784Z,101441.28
2023-02-28T05:15:05.840Z,101437.91
2023-02-28T05:18:09.159Z,101441.44
2023-02-28T05:21:25.550Z,101440.75
2023-02-28T05:24:27.088Z,101445.16
2023-02-28T05:27:29.214Z,101451.06
2023-02-28T05:30:30.944Z,101450.25
2023-02-28T05:33:32.353Z,101457.44
2023-02-28T05:36:34.457Z,101454.81
2023-02-28T05:39:35.888Z,101445.22
2023-02-28T05:42:38.402Z,101453.03
2023-02-28T05:45:39.864Z,101459.13
2023-02-28T05:48:42.946Z,101465.09
2023-02-28T05:51:44.542Z,101462.75
2023-02-28T05:54:47.740Z,101459.16
2023-02-28T05:57:49.110Z,101464.50
2023-02-28T06:00:50.485Z,101459.31
2023-02-28T06:03:51.931Z,101462.09
2023-02-28T06:06:53.431Z,101466.25
2023-02-28T06:09:54.799Z,101468.66
2023-02-28T06:12:56.211Z,101468.75
2023-02-28T06:15:57.592Z,101467.91
2023-02-28T06:19:00.621Z,101472.09
2023-02-28T06:22:02.080Z,101478.94
2023-02-28T06:25:07.364Z,101480.91
2023-02-28T06:28:08.783Z,101473.06
2023-02-28T06:31:17.798Z,101480.00
2023-02-28T06:34:19.266Z,101475.63
2023-02-28T06:37:21.008Z,101482.41
2023-02-28T06:40:22.432Z,101491.84
2023-02-28T06:43:25.605Z,101486.13
2023-02-28T06:46:27.069Z,101487.22
2023-02-28T06:49:28.613Z,101487.22
2023-02-28T06:52:30.366Z,101493.00
2023-02-28T06:55:32.078Z,101491.97
2023-02-28T06:58:34.391Z,101489.38
2023-02-28T07:01:35.840Z,101506.22
2023-02-28T07:04:37.381Z,101495.34
2023-02-28T07:07:41.513Z,101503.91
2023-02-28T07:10:42.932Z,101509.41
2023-02-28T07:13:44.578Z,101510.31
2023-02-28T07:16:46.756Z,101519.41
2023-02-28T07:19:48.186Z,101524.56
2023-02-28T07:22:56.065Z,101524.84
2023-02-28T07:25:57.475Z,101513.91
2023-02-28T07:28:58.916Z,101515.69
2023-02-28T07:32:00.311Z,101522.59
2023-02-28T07:35:01.696Z,101522.84
2023-02-28T07:38:03.939Z,101521.28
2023-02-28T07:41:05.443Z,101526.59
2023-02-28T07:44:06.977Z,101520.75
2023-02-28T07:47:10.132Z,101526.09
2023-02-28T07:50:14.255Z,101527.88
2023-02-28T07:53:15.632Z,101521.88
2023-02-28T07:56:17.009Z,101529.03
2023-02-28T07:59:18.497Z,101520.91
2023-02-28T08:02:20.077Z,101520.94
2023-02-28T08:05:22.249Z,101520.28
2023-02-28T08:08:24.478Z,101520.59
2023-02-28T08:11:25.934Z,101524.78
2023-02-28T08:14:27.627Z,101524.94
2023-02-28T08:17:29.852Z,101525.13
2023-02-28T08:20:31.699Z,101519.53
2023-02-28T08:23:34.503Z,101525.91
2023-02-28T08:26:35.920Z,101521.31
2023-02-28T08:29:40.413Z,101515.28
2023-02-28T08:32:42.013Z,101510.31
2023-02-28T08:35:43.458Z,101515.56
2023-02-28T08:38:44.922Z,101521.47
2023-02-28T08:41:49.371Z,101513.66
2023-02-28T08:44:52.623Z,101515.47
2023-02-28T08:47:55.533Z,101517.28
2023-02-28T08:51:19.485Z,101510.47
2023-02-28T08:54:20.899Z,101516.94
2023-02-28T08:57:22.334Z,101518.75
2023-02-28T09:00:23.999Z,101518.72
2023-02-28T09:03:25.621Z,101518.03
2023-02-28T09:06:28.081Z,101525.91
2023-02-28T09:09:29.695Z,101525.06
2023-02-28T09:12:35.262Z,101527.63
2023-02-28T09:15:38.685Z,101524.31
2023-02-28T09:18:40.582Z,101521.72
2023-02-28T09:21:42.168Z,101526.16
2023-02-28T09:24:45.669Z,101521.06
2023-02-28T09:27:47.151Z,101519.41
2023-02-28T09:30:52.392Z,101521.25
2023-02-28T09:33:55.852Z,101524.66
2023-02-28T09:36:57.459Z,101517.81
2023-02-28T09:39:58.904Z,101515.34
2023-02-28T09:43:01.170Z,101516.41
2023-02-28T09:46:24.419Z,101513.03
2023-02-28T09:49:34.246Z,101513.88
2023-02-28T09:52:37.381Z,101514.53
2023-02-28T09:55:47.271Z,101517.78
2023-02-28T09:58:52.003Z,101520.38
2023-02-28T10:02:22.052Z,101513.91
2023-02-28T10:05:54.344Z,101512.34
2023-02-28T10:09:06.866Z,101516.97
2023-02-28T10:12:12.453Z,101507.28
2023-02-28T10:15:18.259Z,101512.41
2023-02-28T10:18:25.720Z,101510.53
2023-02-28T10:21:33.314Z,101516.75
2023-02-28T10:24:46.901Z,101514.31
2023-02-28T10:27:48.782Z,101518.00
2023-02-28T10:30:52.754Z,101516.44
2023-02-28T10:33:54.288Z,101516.19
2023-02-28T10:36:56.721Z,101522.41
2023-02-28T10:39:58.176Z,101512.00
2023-02-28T10:43:01.834Z,101508.53
2023-02-28T10:46:09.036Z,101519.81
2023-02-28T10:49:21.219Z,101517.28
2023-02-28T10:52:41.736Z,101515.53
2023-02-28T10:55:43.473Z,101515.63
2023-02-28T10:58:55.683Z,101509.47
2023-02-28T11:01:57.349Z,101511.34
2023-02-28T11:04:58.880Z,101504.34
2023-02-28T11:08:07.596Z,101497.38
2023-02-28T11:11:09.026Z,101499.13
2023-02-28T11:14:27.066Z,101500.06
2023-02-28T11:17:31.586Z,101492.31
2023-02-28T11:20:35.036Z,101485.38
2023-02-28T11:23:41.029Z,101487.13
2023-02-28T11:26:49.469Z,101487.06
2023-02-28T11:29:50.876Z,101477.47
2023-02-28T11:32:52.381Z,101472.25
2023-02-28T11:35:59.627Z,101481.03
2023-02-28T11:39:09.783Z,101473.19
2023-02-28T11:42:41.299Z,101481.91
2023-02-28T11:46:11.720Z,101479.25
2023-02-28T11:49:31.900Z,101476.66
2023-02-28T11:53:17.755Z,101480.94
2023-02-28T11:56:37.044Z,101472.25
2023-02-28T11:59:53.793Z,101467.84
2023-02-28T12:03:22.581Z,101466.19
2023-02-28T12:06:50.182Z,101469.66
2023-02-28T12:10:12.488Z,101479.25
2023-02-28T12:13:22.610Z,101467.03
2023-02-28T12:16:46.748Z,101467.03
2023-02-28T12:20:03.964Z,101466.94
2023-02-28T12:23:27.068Z,101468.41
2023-02-28T12:26:40.831Z,101465.78
2023-02-28T12:29:53.172Z,101472.13
2023-02-28T12:33:10.163Z,101461.50
2023-02-28T12:36:18.339Z,101463.44
2023-02-28T12:39:27.088Z,101457.16
2023-02-28T12:42:32.564Z,101456.88
2023-02-28T12:45:52.054Z,101453.38
2023-02-28T12:48:57.933Z,101441.13
2023-02-28T12:52:02.532Z,101445.50
2023-02-28T12:55:12.861Z,101443.69
2023-02-28T12:58:23.496Z,101450.75
2023-02-28T13:01:50.083Z,101441.94
2023-02-28T13:05:25.603Z,101432.31
2023-02-28T13:08:39.067Z,101435.63
2023-02-28T13:11:55.390Z,101431.13
2023-02-28T13:15:22.091Z,101441.56
2023-02-28T13:18:46.164Z,101423.16
2023-02-28T13:21:49.960Z,101435.47
2023-02-28T13:24:57.418Z,101436.41
2023-02-28T13:28:01.760Z,101431.88
2023-02-28T13:31:05.666Z,101432.66
2023-02-28T13:34:15.097Z,101428.66
2023-02-28T13:37:22.686Z,101424.44
2023-02-28T13:40:38.726Z,101426.00
2023-02-28T13:44:09.853Z,101432.56
2023-02-28T13:47:20.661Z,101431.50
2023-02-28T13:50:32.924Z,101424.72
2023-02-28T13:53:50.583Z,101445.94
2023-02-28T13:57:08.875Z,101420.34
2023-02-28T14:00:42.355Z,101445.09
2023-02-28T14:04:07.429Z,101442.03
2023-02-28T14:07:16.684Z,101441.22
2023-02-28T14:10:31.741Z,101440.31
2023-02-28T14:13:59.863Z,101435.06
2023-02-28T14:17:03.139Z,101425.09
2023-02-28T14:20:05.032Z,101426.59
2023-02-28T14:23:21.757Z,101435.88
2023-02-28T14:27:00.911Z,101431.31
2023-02-28T14:30:33.101Z,101428.94
2023-02-28T14:33:49.841Z,101435.75
2023-02-28T14:36:54.122Z,101426.25
2023-02-28T14:39:57.190Z,101428.69
2023-02-28T14:43:06.933Z,101429.63
2023-02-28T14:46:08.529Z,101422.06
2023-02-28T14:49:24.114Z,101439.81
2023-02-28T14:52:29.677Z,101422.66
2023-02-28T14:55:34.801Z,101428.78
2023-02-28T14:58:36.479Z,101431.25
2023-02-28T15:01:37.916Z,101432.03
2023-02-28T15:04:39.327Z,101437.69
2023-02-28T15:07:40.802Z,101441.56
2023-02-28T15:10:51.536Z,101444.16
2023-02-28T15:13:56.296Z,101439.91
2023-02-28T15:17:03.288Z,101439.88
2023-02-28T15:20:05.301Z,101439.88
2023-02-28T15:23:06.915Z,101436.41
2023-02-28T15:26:12.069Z,101442.53
2023-02-28T15:29:21.876Z,101438.19
2023-02-28T15:32:32.680Z,101441.69
2023-02-28T15:35:34.574Z,101439.06
2023-02-28T15:38:37.175Z,101440.81
2023-02-28T15:41:39.061Z,101449.53
2023-02-28T15:44:40.698Z,101442.56
2023-02-28T15:47:47.173Z,101446.09
2023-02-28T15:50:53.551Z,101447.00
2023-02-28T15:54:22.742Z,101440.00
2023-02-28T15:57:30.034Z,101437.38
2023-02-28T16:00:33.758Z,101441.72
2023-02-28T16:03:41.788Z,101435.63
2023-02-28T16:07:00.781Z,101436.47
2023-02-28T16:10:03.237Z,101433.00
2023-02-28T16:13:04.836Z,101433.00
2023-02-28T16:16:06.645Z,101434.72
2023-02-28T16:19:09.250Z,101436.47
2023-02-28T16:22:10.744Z,101435.59
2023-02-28T16:25:17.510Z,101444.31
2023-02-28T16:28:24.868Z,101444.25
2023-02-28T16:31:26.273Z,101439.84
2023-02-28T16:34:27.955Z,101452.94
2023-02-28T16:37:29.491Z,101457.31
2023-02-28T16:40:35.962Z,101456.47
2023-02-28T16:43:38.934Z,101461.66
2023-02-28T16:46:40.749Z,101466.84
2023-02-28T16:49:43.927Z,101474.72
2023-02-28T16:52:45.468Z,101465.13
2023-02-28T16:55:48.163Z,101476.34
2023-02-28T16:58:50.663Z,101479.78
2023-02-28T17:01:52.923Z,101477.22
2023-02-28T17:04:54.423Z,101474.59
2023-02-28T17:07:55.826Z,101485.00
2023-02-28T17:10:57.340Z,101482.41
2023-02-28T17:13:58.779Z,101491.94
2023-02-28T17:17:00.350Z,101491.00
2023-02-28T17:20:01.836Z,101505.78
2023-02-28T17:23:03.416Z,101499.69
2023-02-28T17:26:07.411Z,101493.47
2023-02-28T17:29:20.833Z,101507.41
2023-02-28T17:32:22.237Z,101506.56
2023-02-28T17:35:24.772Z,101507.44
2023-02-28T17:38:26.396Z,101507.44
2023-02-28T17:41:27.815Z,101517.84
2023-02-28T17:44:29.235Z,101510.91
2023-02-28T17:47:30.726Z,101507.44
2023-02-28T17:50:32.830Z,101513.47
2023-02-28T17:53:34.236Z,101513.50
2023-02-28T17:56:35.795Z,101509.09
2023-02-28T17:59:37.166Z,101510.78
2023-02-28T18:02:38.626Z,101511.63
2023-02-28T18:05:40.562Z,101503.84
2023-02-28T18:08:42.238Z,101507.28
2023-02-28T18:11:46.030Z,101513.28
2023-02-28T18:14:48.684Z,101511.59
2023-02-28T18:17:50.626Z,101515.94
2023-02-28T18:20:53.202Z,101516.81
2023-02-28T18:23:54.783Z,101512.41
2023-02-28T18:26:56.161Z,101506.31
2023-02-28T18:29:57.548Z,101507.13
2023-02-28T18:33:00.364Z,101513.94
2023-02-28T18:36:02.025Z,101514.78
2023-02-28T18:39:03.561Z,101514.78
2023-02-28T18:42:05.114Z,101512.25
2023-02-28T18:45:07.383Z,101513.13
2023-02-28T18:48:08.771Z,101505.19
2023-02-28T18:51:13.146Z,101512.91
2023-02-28T18:54:15.655Z,101515.44
2023-02-28T18:57:17.093Z,101514.63
2023-02-28T19:00:22.227Z,101525.03
2023-02-28T19:03:23.763Z,101515.41
2023-02-28T19:06:25.153Z,101516.25
2023-02-28T19:09:26.677Z,101512.81
2023-02-28T19:12:28.057Z,101512.84
2023-02-28T19:15:29.460Z,101513.63
2023-02-28T19:18:32.127Z,101515.34
2023-02-28T19:21:36.344Z,101516.22
2023-02-28T19:24:37.746Z,101526.72
2023-02-28T19:27:39.469Z,101526.59
2023-02-28T19:30:45.996Z,101530.91
2023-02-28T19:33:47.428Z,101524.69
2023-02-28T19:36:49.581Z,101527.34
2023-02-28T19:39:51.634Z,101521.13
2023-02-28T19:42:53.008Z,101521.06
2023-02-28T19:45:54.498Z,101515.00
2023-02-28T19:48:55.894Z,101511.53
2023-02-28T19:51:58.081Z,101513.31
2023-02-28T19:54:59.726Z,101519.34
2023-02-28T19:58:01.157Z,101520.16
2023-02-28T20:01:17.459Z,101523.53
2023-02-28T20:04:18.920Z,101522.63
2023-02-28T20:07:20.521Z,101525.16
2023-02-28T20:10:21.946Z,101515.53
2023-02-28T20:13:27.978Z,101518.94
2023-02-28T20:16:31.141Z,101519.81
2023-02-28T20:19:32.963Z,101509.38
2023-02-28T20:22:38.242Z,101511.13
2023-02-28T20:25:40.737Z,101513.72
2023-02-28T20:28:43.397Z,101512.84
2023-02-28T20:31:44.875Z,101505.06
2023-02-28T20:34:46.280Z,101505.03
2023-02-28T20:37:47.672Z,101503.28
2023-02-28T20:40:49.068Z,101509.38
2023-02-28T20:44:02.259Z,101501.47
2023-02-28T20:47:03.835Z,101509.19
2023-02-28T20:50:05.926Z,101496.97
2023-02-28T20:53:07.401Z,101503.03
2023-02-28T20:56:13.649Z,101505.66
2023-02-28T20:59:15.112Z,101503.91
2023-02-28T21:02:17.159Z,101502.03
2023-02-28T21:05:18.579Z,101492.47
2023-02-28T21:08:20.016Z,101494.19
2023-02-28T21:11:25.407Z,101493.09
2023-02-28T21:14:27.298Z,101498.34
2023-02-28T21:17:29.235Z,101496.63
2023-02-28T21:20:30.627Z,101501.03
2023-02-28T21:23:32.350Z,101495.66
2023-02-28T21:26:33.888Z,101503.59
2023-02-28T21:29:36.248Z,101494.91
2023-02-28T21:32:37.679Z,101505.25
2023-02-28T21:35:39.119Z,101503.44
2023-02-28T21:38:42.094Z,101496.41
2023-02-28T21:41:43.708Z,101498.94
2023-02-28T21:44:45.228Z,101494.56
2023-02-28T21:47:46.682Z,101499.59
2023-02-28T21:51:02.381Z,101494.16
2023-02-28T21:54:04.048Z,101501.22
2023-02-28T21:57:05.635Z,101506.50
2023-02-28T22:00:08.814Z,101502.16
2023-02-28T22:03:13.921Z,101502.09
2023-02-28T22:06:21.162Z,101494.34
2023-02-28T22:09:22.713Z,101498.66
2023-02-28T22:12:25.610Z,101501.19
2023-02-28T22:15:27.585Z,101508.13
2023-02-28T22:18:28.979Z,101494.94
2023-02-28T22:21:30.405Z,101506.25
2023-02-28T22:24:31.780Z,101504.53
2023-02-28T22:27:33.854Z,101501.81
2023-02-28T22:30:35.236Z,101501.84
2023-02-28T22:33:36.599Z,101499.16
2023-02-28T22:36:41.388Z,101499.09
2023-02-28T22:39:42.874Z,101497.38
2023-02-28T22:42:44.265Z,101492.16
2023-02-28T22:45:45.684Z,101489.66
2023-02-28T22:48:48.666Z,101481.72
2023-02-28T22:51:50.080Z,101483.53
2023-02-28T22:54:52.051Z,101483.66
2023-02-28T22:57:53.474Z,101479.97
2023-02-28T23:00:55.366Z,101485.16
2023-02-28T23:03:57.247Z,101494.88
2023-02-28T23:06:58.695Z,101490.69
2023-02-28T23:10:00.144Z,101492.19
2023-02-28T23:13:01.524Z,101496.44
2023-02-28T23:16:07.235Z,101504.31
2023-02-28T23:19:11.632Z,101498.31
2023-02-28T23:22:13.011Z,101498.88
2023-02-28T23:25:14.509Z,101499.72
2023-02-28T23:28:16.266Z,101504.03
2023-02-28T23:31:17.760Z,101503.03
2023-02-28T23:34:26.103Z,101497.88
2023-02-28T23:37:27.489Z,101506.50
2023-02-28T23:40:28.930Z,101512.59
2023-02-28T23:43:30.315Z,101515.97
2023-02-28T23:46:32.104Z,101517.69
2023-02-28T23:49:33.641Z,101508.16
2023-02-28T23:52:35.098Z,101503.88
2023-02-28T23:55:36.611Z,101496.13
2023-02-28T23:58:37.995Z,101502.19
